• Join FlightAware (Why Join?)
  • Login
  • US Flag 
05:10PM EDT


 

Airport Tracker/Info


-or-


 

Live Flight TrackerFlight Track Log ✈ SWA499 ✈ 06-May-2013 ✈ KSLC - KDEN

Flight Track Log - Related Links

Times and Time Zones

All times are in EDT time to prevent confusion due to time zone crossing. See the SWA499 flight status page for this flight to view local times or setup timezone preferences in your user account.

Time Position Orientation Groundspeed Altitude Reporting Facility
EDT Latitude Longitude Course Direction KTS MPH feet Rate Location/Type
10:27AM 40.7569 -112.0331 283° West 186 214 6,500  Level Salt Lake Center
10:28AM 40.7650 -112.0789 283° West 228 262 7,400 2,520 Climbing Salt Lake Center
10:30AM 40.9123 -112.2311 339° North  Level FlightAware Approximate
10:32AM 40.9447 -112.0581 95° East 310 357 18,900  Level Salt Lake Center
10:33AM 40.9394 -111.9286 93° East 364 419 20,400 2,160 Climbing Salt Lake Center
10:35AM 40.8852 -111.7007 97° East  Level FlightAware Approximate
10:36AM 40.8981 -111.4775 94° East 403 464 27,800  Level Salt Lake Center
10:37AM 40.8473 -111.2256 95° East  Level FlightAware Approximate
10:38AM 40.8713 -111.2579 95° East  Level Estimated
10:38AM 40.8642 -111.1603 95° East 446 513 30,200  Level Salt Lake Center
10:39AM 40.8469 -110.9944 98° East 455 524 32,100 1,740 Climbing Salt Lake Center
10:40AM 40.8300 -110.8314 98° East 452 520 33,900 1,740 Climbing Salt Lake Center
10:41AM 40.8083 -110.6358 98° East 450 518 35,700 1,320 Climbing Salt Lake Center
10:42AM 40.7953 -110.6966 94° East  Level FlightAware Approximate
10:43AM 40.7744 -110.3169 98° East 453 521 38,000  Level Salt Lake Center
10:45AM 40.7414 -110.1289 103° East  Level FlightAware Approximate
10:48AM 40.7072 -109.5447 96° East 460 529 39,000  Level Denver Center
10:48AM 40.7014 -109.4658 96° East 464 534 39,000  Level Salt Lake Center
10:49AM 40.6867 -109.2783 96° East 460 529 39,000  Level Salt Lake Center
10:52AM 40.6682 -109.1209 95° East  Level FlightAware Approximate
10:52AM 40.6539 -108.8453 96° East 462 532 39,000  Level Denver Center
10:53AM 40.6573 -108.9770 96° East  Level FlightAware Approximate
10:53AM 40.6408 -108.6828 96° East 463 533 39,000  Level Denver Center
10:54AM 40.6278 -108.4939 95° East 462 532 39,000 -240 Level Denver Center
10:54AM 40.6225 -108.4269 96° East 462 532 38,700 -960 Descending Salt Lake Center
10:56AM 40.6083 -108.2431 96° East 456 525 37,500 -1,020 Descending Salt Lake Center
10:57AM 40.5889 -107.9953 96° East 451 519 36,100 -1,260 Descending Denver Center
10:58AM 40.5764 -107.8367 96° East 453 521 34,300 -1,440 Descending Denver Center
11:00AM 40.5525 -107.5603 96° East 458 527 32,500 -1,080 Descending Salt Lake Center
11:00AM 40.5472 -107.4911 96° East 459 528 32,100 -960 Descending Denver Center
11:01AM 40.5308 -107.3014 96° East 465 535 31,100 -1,020 Descending Denver Center
11:02AM 40.5164 -107.1308 96° East 467 537 30,100 -1,020 Descending Denver Center
11:03AM 40.5019 -106.9614 96° East 466 536 29,100 -1,020 Descending Denver Center
11:05AM 40.4877 -106.7797 96° East  Level FlightAware Approximate
11:05AM 40.4722 -106.6228 96° East 462 532 27,100  Level Denver Center
11:06AM 40.4547 -106.4431 97° East 458 527 27,000 -420 Descending Denver Center
11:08AM 40.4500 -106.2749 90° East  Level FlightAware Approximate
11:08AM 40.4214 -106.1031 90° East 457 526 25,900  Level Denver Center
11:09AM 40.4072 -105.9397 96° East 448 516 23,900 -1,920 Descending Denver Center
11:10AM 40.3922 -105.7814 97° East 435 501 22,000 -1,860 Descending Denver Center
11:12AM 40.3667 -105.5167 97° East 370 426 18,600 -1,800 Descending Denver TRACON
11:13AM 40.3500 -105.3833 99° East 367 422 17,000 -1,620 Descending Denver TRACON
11:14AM 40.3369 -105.3611 128° Southeast 371 427 16,600 -1,440 Descending Denver Center
11:15AM 40.3028 -105.2317 109° East 350 403 15,200 -1,200 Descending Denver Center
11:16AM 40.2717 -105.1103 109° East 354 407 14,200 -780 Descending Denver Center
11:17AM 40.2408 -104.9936 109° East 316 364 13,600 -600 Descending Denver Center
11:18AM 40.2164 -104.9008 109° East 275 316 13,000 -900 Descending Denver Center
11:19AM 40.1775 -104.8300 126° Southeast 248 285 11,800 -1,320 Descending Denver Center
11:20AM 40.1144 -104.7864 152° Southeast 236 272 10,300 -1,320 Descending Denver Center
11:22AM 40.0047 -104.7119 153° Southeast 203 234 7,800 -1,140 Descending Denver Center
11:24AM 39.9114 -104.6961 173° South 158 182 5,600 -840 Descending Denver Center
11:25AM 39.8739 -104.6967 181° South 146 168 5,300 -300 Descending Denver Center
11:27AM 39.8617 -104.6732 North  Level Estimated
11:34AM 39.8617 -104.6732 North  Level Estimated
11:35AM 39.8617 -104.6732 North  Level Estimated